sensor_id;sensor_type;location;lat;lon;timestamp;temperature;humidity
3202;DHT22;34843;48.744;8.958;2023-04-01T00:01:12;7.50;99.90
3202;DHT22;34843;48.744;8.958;2023-04-01T00:03:42;7.60;99.90
3202;DHT22;34843;48.744;8.958;2023-04-01T00:06:11;7.60;99.90
3202;DHT22;34843;48.744;8.958;2023-04-01T00:08:37;7.60;99.90
3202;DHT22;34843;48.744;8.958;2023-04-01T00:11:03;7.70;99.90
3202;DHT22;34843;48.744;8.958;2023-04-01T00:13:28;7.70;99.90
3202;DHT22;34843;48.744;8.958;2023-04-01T00:15:55;7.70;99.90
3202;DHT22;34843;48.744;8.958;2023-04-01T00:18:21;7.80;99.90
3202;DHT22;34843;48.744;8.958;2023-04-01T00:20:48;7.70;99.90
3202;DHT22;34843;48.744;8.958;2023-04-01T00:23:15;7.70;99.90
3202;DHT22;34843;48.744;8.958;2023-04-01T00:25:41;7.70;99.90
3202;DHT22;34843;48.744;8.958;2023-04-01T00:28:07;7.60;99.90
3202;DHT22;34843;48.744;8.958;2023-04-01T00:30:32;7.60;99.90
3202;DHT22;34843;48.744;8.958;2023-04-01T00:32:58;7.60;99.90
3202;DHT22;34843;48.744;8.958;2023-04-01T00:35:23;7.60;99.90
3202;DHT22;34843;48.744;8.958;2023-04-01T00:37:49;7.70;99.90
3202;DHT22;34843;48.744;8.958;2023-04-01T00:40:33;7.80;99.90
3202;DHT22;34843;48.744;8.958;2023-04-01T00:42:59;7.80;99.90
3202;DHT22;34843;48.744;8.958;2023-04-01T00:45:37;7.90;99.90
3202;DHT22;34843;48.744;8.958;2023-04-01T00:48:10;7.90;99.90
3202;DHT22;34843;48.744;8.958;2023-04-01T00:50:37;7.90;99.90
3202;DHT22;34843;48.744;8.958;2023-04-01T00:53:03;7.90;99.90
3202;DHT22;34843;48.744;8.958;2023-04-01T00:55:33;7.90;99.90
3202;DHT22;34843;48.744;8.958;2023-04-01T00:58:02;7.90;99.90
3202;DHT22;34843;48.744;8.958;2023-04-01T01:00:30;7.90;99.90
3202;DHT22;34843;48.744;8.958;2023-04-01T01:02:56;7.80;99.90
3202;DHT22;34843;48.744;8.958;2023-04-01T01:05:30;7.90;99.90
3202;DHT22;34843;48.744;8.958;2023-04-01T01:08:19;7.90;99.90
3202;DHT22;34843;48.744;8.958;2023-04-01T01:10:49;7.90;99.90
3202;DHT22;34843;48.744;8.958;2023-04-01T01:16:00;7.80;99.90
3202;DHT22;34843;48.744;8.958;2023-04-01T01:18:46;7.80;99.90
3202;DHT22;34843;48.744;8.958;2023-04-01T01:22:19;7.90;99.90
3202;DHT22;34843;48.744;8.958;2023-04-01T01:29:45;8.00;99.90
3202;DHT22;34843;48.744;8.958;2023-04-01T01:35:16;8.00;99.90
3202;DHT22;34843;48.744;8.958;2023-04-01T01:37:45;8.00;99.90
3202;DHT22;34843;48.744;8.958;2023-04-01T01:40:13;8.00;99.90
3202;DHT22;34843;48.744;8.958;2023-04-01T01:42:44;8.00;99.90
3202;DHT22;34843;48.744;8.958;2023-04-01T01:45:12;8.00;99.90
3202;DHT22;34843;48.744;8.958;2023-04-01T01:47:40;8.00;99.90
3202;DHT22;34843;48.744;8.958;2023-04-01T01:50:07;8.00;99.90
3202;DHT22;34843;48.744;8.958;2023-04-01T01:52:34;7.90;99.90
3202;DHT22;34843;48.744;8.958;2023-04-01T01:55:00;7.90;99.90
3202;DHT22;34843;48.744;8.958;2023-04-01T01:57:33;7.90;99.90
3202;DHT22;34843;48.744;8.958;2023-04-01T02:00:06;7.80;99.90
3202;DHT22;34843;48.744;8.958;2023-04-01T02:02:39;7.80;99.90
3202;DHT22;34843;48.744;8.958;2023-04-01T02:05:06;7.90;99.90
3202;DHT22;34843;48.744;8.958;2023-04-01T02:07:35;7.80;99.90
3202;DHT22;34843;48.744;8.958;2023-04-01T02:10:01;7.80;99.90
3202;DHT22;34843;48.744;8.958;2023-04-01T02:12:28;7.80;99.90
3202;DHT22;34843;48.744;8.958;2023-04-01T02:15:03;7.90;99.90
3202;DHT22;34843;48.744;8.958;2023-04-01T02:17:32;7.90;99.90
3202;DHT22;34843;48.744;8.958;2023-04-01T02:20:18;7.90;99.90
3202;DHT22;34843;48.744;8.958;2023-04-01T02:22:49;7.90;99.90
3202;DHT22;34843;48.744;8.958;2023-04-01T02:25:18;7.90;99.90
3202;DHT22;34843;48.744;8.958;2023-04-01T02:27:45;7.80;99.90
3202;DHT22;34843;48.744;8.958;2023-04-01T02:30:13;7.80;99.90
3202;DHT22;34843;48.744;8.958;2023-04-01T02:32:39;7.80;99.90
3202;DHT22;34843;48.744;8.958;2023-04-01T02:35:10;7.80;99.90
3202;DHT22;34843;48.744;8.958;2023-04-01T02:37:40;7.80;99.90
3202;DHT22;34843;48.744;8.958;2023-04-01T02:40:10;7.60;99.90
3202;DHT22;34843;48.744;8.958;2023-04-01T02:42:36;7.50;99.90
3202;DHT22;34843;48.744;8.958;2023-04-01T02:45:02;7.50;99.90
3202;DHT22;34843;48.744;8.958;2023-04-01T02:47:28;7.50;99.90
3202;DHT22;34843;48.744;8.958;2023-04-01T02:49:54;7.50;99.90
3202;DHT22;34843;48.744;8.958;2023-04-01T02:52:24;7.50;99.90
3202;DHT22;34843;48.744;8.958;2023-04-01T02:54:49;7.50;99.90
3202;DHT22;34843;48.744;8.958;2023-04-01T02:57:15;7.50;99.90
3202;DHT22;34843;48.744;8.958;2023-04-01T02:59:41;7.40;99.90
3202;DHT22;34843;48.744;8.958;2023-04-01T03:02:06;7.40;99.90
3202;DHT22;34843;48.744;8.958;2023-04-01T03:04:32;7.40;99.90
3202;DHT22;34843;48.744;8.958;2023-04-01T03:06:57;7.40;99.90
3202;DHT22;34843;48.744;8.958;2023-04-01T03:09:23;7.40;99.90
3202;DHT22;34843;48.744;8.958;2023-04-01T03:11:48;7.30;99.90
3202;DHT22;34843;48.744;8.958;2023-04-01T03:14:14;7.30;99.90
3202;DHT22;34843;48.744;8.958;2023-04-01T03:16:40;7.30;99.90
3202;DHT22;34843;48.744;8.958;2023-04-01T03:19:05;7.20;99.90
3202;DHT22;34843;48.744;8.958;2023-04-01T03:21:31;7.20;99.90
3202;DHT22;34843;48.744;8.958;2023-04-01T03:23:56;7.10;99.90
3202;DHT22;34843;48.744;8.958;2023-04-01T03:26:22;7.20;99.90
3202;DHT22;34843;48.744;8.958;2023-04-01T03:28:48;7.20;99.90
3202;DHT22;34843;48.744;8.958;2023-04-01T03:31:13;7.20;99.90
3202;DHT22;34843;48.744;8.958;2023-04-01T03:33:40;7.20;99.90
3202;DHT22;34843;48.744;8.958;2023-04-01T03:36:05;7.20;99.90
3202;DHT22;34843;48.744;8.958;2023-04-01T03:38:33;7.20;99.90
3202;DHT22;34843;48.744;8.958;2023-04-01T03:40:59;7.30;99.90
3202;DHT22;34843;48.744;8.958;2023-04-01T03:43:24;7.30;99.90
3202;DHT22;34843;48.744;8.958;2023-04-01T03:45:51;7.30;99.90
3202;DHT22;34843;48.744;8.958;2023-04-01T03:48:18;7.30;99.90
3202;DHT22;34843;48.744;8.958;2023-04-01T03:50:44;7.20;99.90
3202;DHT22;34843;48.744;8.958;2023-04-01T03:53:10;7.10;99.90
3202;DHT22;34843;48.744;8.958;2023-04-01T03:55:36;7.00;99.90
3202;DHT22;34843;48.744;8.958;2023-04-01T03:58:02;6.90;99.90
3202;DHT22;34843;48.744;8.958;2023-04-01T04:00:31;6.80;99.90
3202;DHT22;34843;48.744;8.958;2023-04-01T04:02:57;6.80;99.90
3202;DHT22;34843;48.744;8.958;2023-04-01T04:05:23;6.70;99.90
3202;DHT22;34843;48.744;8.958;2023-04-01T04:07:50;6.70;99.90
3202;DHT22;34843;48.744;8.958;2023-04-01T04:10:16;6.70;99.90
3202;DHT22;34843;48.744;8.958;2023-04-01T04:12:41;6.70;99.90
3202;DHT22;34843;48.744;8.958;2023-04-01T04:15:07;6.70;99.90
3202;DHT22;34843;48.744;8.958;2023-04-01T04:17:33;6.70;99.90
3202;DHT22;34843;48.744;8.958;2023-04-01T04:19:59;6.70;99.90
3202;DHT22;34843;48.744;8.958;2023-04-01T04:22:24;6.60;99.90
3202;DHT22;34843;48.744;8.958;2023-04-01T04:24:50;6.60;99.90
3202;DHT22;34843;48.744;8.958;2023-04-01T04:27:15;6.50;99.90
3202;DHT22;34843;48.744;8.958;2023-04-01T04:29:41;6.50;99.90
3202;DHT22;34843;48.744;8.958;2023-04-01T04:32:06;6.50;99.90
3202;DHT22;34843;48.744;8.958;2023-04-01T04:34:32;6.60;99.90
3202;DHT22;34843;48.744;8.958;2023-04-01T04:36:58;6.60;99.90
3202;DHT22;34843;48.744;8.958;2023-04-01T04:39:23;6.60;99.90
3202;DHT22;34843;48.744;8.958;2023-04-01T04:41:49;6.60;99.90
3202;DHT22;34843;48.744;8.958;2023-04-01T04:44:14;6.70;99.90
3202;DHT22;34843;48.744;8.958;2023-04-01T04:46:40;6.70;99.90
3202;DHT22;34843;48.744;8.958;2023-04-01T04:49:06;6.70;99.90
3202;DHT22;34843;48.744;8.958;2023-04-01T04:51:32;6.80;99.90
3202;DHT22;34843;48.744;8.958;2023-04-01T04:54:04;6.90;99.90
3202;DHT22;34843;48.744;8.958;2023-04-01T04:56:30;7.00;99.90
3202;DHT22;34843;48.744;8.958;2023-04-01T04:58:57;6.90;99.90
3202;DHT22;34843;48.744;8.958;2023-04-01T05:01:23;7.00;99.90
3202;DHT22;34843;48.744;8.958;2023-04-01T05:03:49;7.00;99.90
3202;DHT22;34843;48.744;8.958;2023-04-01T05:06:16;7.00;99.90
3202;DHT22;34843;48.744;8.958;2023-04-01T05:08:43;7.10;99.90
3202;DHT22;34843;48.744;8.958;2023-04-01T05:11:15;7.10;99.90
3202;DHT22;34843;48.744;8.958;2023-04-01T05:13:41;7.10;99.90
3202;DHT22;34843;48.744;8.958;2023-04-01T05:16:12;7.10;99.90
3202;DHT22;34843;48.744;8.958;2023-04-01T05:18:38;7.10;99.90
3202;DHT22;34843;48.744;8.958;2023-04-01T05:21:04;7.10;99.90
3202;DHT22;34843;48.744;8.958;2023-04-01T05:23:31;7.20;99.90
3202;DHT22;34843;48.744;8.958;2023-04-01T05:25:56;7.20;99.90
3202;DHT22;34843;48.744;8.958;2023-04-01T05:28:22;7.30;99.90
3202;DHT22;34843;48.744;8.958;2023-04-01T05:30:48;7.50;99.90
3202;DHT22;34843;48.744;8.958;2023-04-01T05:33:14;7.60;99.90
3202;DHT22;34843;48.744;8.958;2023-04-01T05:35:40;7.70;99.90
3202;DHT22;34843;48.744;8.958;2023-04-01T05:38:06;7.70;99.90
3202;DHT22;34843;48.744;8.958;2023-04-01T05:40:32;7.70;99.90
3202;DHT22;34843;48.744;8.958;2023-04-01T05:42:59;7.80;99.90
3202;DHT22;34843;48.744;8.958;2023-04-01T05:45:25;7.80;99.90
3202;DHT22;34843;48.744;8.958;2023-04-01T05:47:51;7.90;99.90
3202;DHT22;34843;48.744;8.958;2023-04-01T05:50:16;8.00;99.90
3202;DHT22;34843;48.744;8.958;2023-04-01T05:52:42;8.20;99.90
3202;DHT22;34843;48.744;8.958;2023-04-01T05:55:08;8.60;99.90
3202;DHT22;34843;48.744;8.958;2023-04-01T05:57:34;8.90;99.90
3202;DHT22;34843;48.744;8.958;2023-04-01T05:59:59;9.00;99.90
3202;DHT22;34843;48.744;8.958;2023-04-01T06:02:25;9.00;99.90
3202;DHT22;34843;48.744;8.958;2023-04-01T06:05:01;9.00;99.90
3202;DHT22;34843;48.744;8.958;2023-04-01T06:07:28;9.20;99.90
3202;DHT22;34843;48.744;8.958;2023-04-01T06:09:54;9.50;99.90
3202;DHT22;34843;48.744;8.958;2023-04-01T06:12:36;10.20;99.90
3202;DHT22;34843;48.744;8.958;2023-04-01T06:15:20;10.50;99.90
3202;DHT22;34843;48.744;8.958;2023-04-01T06:20:50;10.70;99.90
3202;DHT22;34843;48.744;8.958;2023-04-01T06:28:49;10.30;99.90
3202;DHT22;34843;48.744;8.958;2023-04-01T06:32:07;10.10;99.90
3202;DHT22;34843;48.744;8.958;2023-04-01T06:34:50;9.80;99.90
3202;DHT22;34843;48.744;8.958;2023-04-01T06:48:05;9.30;99.90
3202;DHT22;34843;48.744;8.958;2023-04-01T06:50:41;9.30;99.90
3202;DHT22;34843;48.744;8.958;2023-04-01T06:56:10;9.40;99.90
3202;DHT22;34843;48.744;8.958;2023-04-01T06:58:42;9.40;99.90
3202;DHT22;34843;48.744;8.958;2023-04-01T07:01:15;9.40;99.90
3202;DHT22;34843;48.744;8.958;2023-04-01T07:03:49;9.40;99.90
3202;DHT22;34843;48.744;8.958;2023-04-01T07:06:25;9.30;99.90
3202;DHT22;34843;48.744;8.958;2023-04-01T07:08:53;9.30;99.90
3202;DHT22;34843;48.744;8.958;2023-04-01T07:11:39;9.20;99.90
3202;DHT22;34843;48.744;8.958;2023-04-01T07:14:41;9.20;99.90
3202;DHT22;34843;48.744;8.958;2023-04-01T07:17:25;9.20;99.90
3202;DHT22;34843;48.744;8.958;2023-04-01T07:20:11;9.00;99.90
3202;DHT22;34843;48.744;8.958;2023-04-01T07:22:39;8.90;99.90
3202;DHT22;34843;48.744;8.958;2023-04-01T07:25:13;8.90;99.90
3202;DHT22;34843;48.744;8.958;2023-04-01T07:27:38;8.90;99.90
3202;DHT22;34843;48.744;8.958;2023-04-01T07:30:16;8.90;99.90
3202;DHT22;34843;48.744;8.958;2023-04-01T07:32:52;8.90;99.90
3202;DHT22;34843;48.744;8.958;2023-04-01T07:35:38;9.00;99.90
3202;DHT22;34843;48.744;8.958;2023-04-01T07:43:54;9.20;99.90
3202;DHT22;34843;48.744;8.958;2023-04-01T07:46:32;9.30;99.90
3202;DHT22;34843;48.744;8.958;2023-04-01T07:49:07;9.50;99.90
3202;DHT22;34843;48.744;8.958;2023-04-01T07:52:19;9.70;99.90
3202;DHT22;34843;48.744;8.958;2023-04-01T07:54:31;9.90;99.90
3202;DHT22;34843;48.744;8.958;2023-04-01T08:03:05;10.30;99.90
3202;DHT22;34843;48.744;8.958;2023-04-01T08:08:56;10.20;99.90
3202;DHT22;34843;48.744;8.958;2023-04-01T08:14:10;10.20;99.90
3202;DHT22;34843;48.744;8.958;2023-04-01T08:16:48;10.20;99.90
3202;DHT22;34843;48.744;8.958;2023-04-01T08:22:10;10.00;99.90
3202;DHT22;34843;48.744;8.958;2023-04-01T08:24:42;10.00;99.90
3202;DHT22;34843;48.744;8.958;2023-04-01T08:27:23;9.90;99.90
3202;DHT22;34843;48.744;8.958;2023-04-01T08:32:34;9.80;99.90
3202;DHT22;34843;48.744;8.958;2023-04-01T08:35:26;9.70;99.90
3202;DHT22;34843;48.744;8.958;2023-04-01T08:37:55;9.60;99.90
3202;DHT22;34843;48.744;8.958;2023-04-01T08:45:49;9.10;99.90
3202;DHT22;34843;48.744;8.958;2023-04-01T08:48:51;8.90;99.90
3202;DHT22;34843;48.744;8.958;2023-04-01T08:57:46;9.00;99.90
3202;DHT22;34843;48.744;8.958;2023-04-01T09:09:25;10.00;99.90
3202;DHT22;34843;48.744;8.958;2023-04-01T09:12:25;10.30;99.90
3202;DHT22;34843;48.744;8.958;2023-04-01T09:20:50;11.00;99.90
3202;DHT22;34843;48.744;8.958;2023-04-01T09:23:54;11.10;99.90
3202;DHT22;34843;48.744;8.958;2023-04-01T09:26:51;11.20;99.90
3202;DHT22;34843;48.744;8.958;2023-04-01T09:29:51;10.90;99.90
3202;DHT22;34843;48.744;8.958;2023-04-01T09:35:23;10.60;99.90
3202;DHT22;34843;48.744;8.958;2023-04-01T09:48:50;10.20;99.90
3202;DHT22;34843;48.744;8.958;2023-04-01T10:00:16;10.00;99.90
3202;DHT22;34843;48.744;8.958;2023-04-01T10:13:59;10.70;99.90
3202;DHT22;34843;48.744;8.958;2023-04-01T10:19:10;10.90;99.90
3202;DHT22;34843;48.744;8.958;2023-04-01T10:39:30;12.70;99.90
3202;DHT22;34843;48.744;8.958;2023-04-01T10:48:13;12.20;99.90
3202;DHT22;34843;48.744;8.958;2023-04-01T10:54:20;11.60;99.90
3202;DHT22;34843;48.744;8.958;2023-04-01T10:56:56;11.30;99.90
3202;DHT22;34843;48.744;8.958;2023-04-01T10:59:54;11.20;99.90
3202;DHT22;34843;48.744;8.958;2023-04-01T11:12:19;10.70;99.90
3202;DHT22;34843;48.744;8.958;2023-04-01T11:25:29;11.20;99.90
3202;DHT22;34843;48.744;8.958;2023-04-01T11:28:34;11.30;99.90
3202;DHT22;34843;48.744;8.958;2023-04-01T11:39:44;12.10;99.90
3202;DHT22;34843;48.744;8.958;2023-04-01T11:48:13;11.80;99.90
3202;DHT22;34843;48.744;8.958;2023-04-01T11:50:46;11.50;99.90
3202;DHT22;34843;48.744;8.958;2023-04-01T11:56:53;11.40;99.90
3202;DHT22;34843;48.744;8.958;2023-04-01T11:59:44;11.50;99.90
3202;DHT22;34843;48.744;8.958;2023-04-01T12:10:44;11.50;99.90
3202;DHT22;34843;48.744;8.958;2023-04-01T12:16:50;11.20;99.90
3202;DHT22;34843;48.744;8.958;2023-04-01T12:18:52;11.20;99.90
3202;DHT22;34843;48.744;8.958;2023-04-01T12:29:21;11.40;99.90
3202;DHT22;34843;48.744;8.958;2023-04-01T12:31:59;11.70;99.90
3202;DHT22;34843;48.744;8.958;2023-04-01T12:39:52;12.10;99.90
3202;DHT22;34843;48.744;8.958;2023-04-01T12:42:53;12.20;99.90
3202;DHT22;34843;48.744;8.958;2023-04-01T12:45:28;12.30;99.90
3202;DHT22;34843;48.744;8.958;2023-04-01T12:48:15;12.20;99.90
3202;DHT22;34843;48.744;8.958;2023-04-01T12:51:07;12.20;99.90
3202;DHT22;34843;48.744;8.958;2023-04-01T12:54:09;12.10;99.90
3202;DHT22;34843;48.744;8.958;2023-04-01T12:59:18;11.80;99.90
3202;DHT22;34843;48.744;8.958;2023-04-01T13:12:42;11.10;99.90
3202;DHT22;34843;48.744;8.958;2023-04-01T13:15:25;11.20;99.90
3202;DHT22;34843;48.744;8.958;2023-04-01T13:18:20;11.20;99.90
3202;DHT22;34843;48.744;8.958;2023-04-01T13:21:15;11.20;99.90
3202;DHT22;34843;48.744;8.958;2023-04-01T13:29:30;11.50;99.90
3202;DHT22;34843;48.744;8.958;2023-04-01T13:32:09;11.50;99.90
3202;DHT22;34843;48.744;8.958;2023-04-01T13:45:29;11.30;99.90
3202;DHT22;34843;48.744;8.958;2023-04-01T14:01:31;11.70;99.90
3202;DHT22;34843;48.744;8.958;2023-04-01T14:04:09;11.80;99.90
3202;DHT22;34843;48.744;8.958;2023-04-01T14:15:31;11.60;99.90
3202;DHT22;34843;48.744;8.958;2023-04-01T14:20:37;11.30;99.90
3202;DHT22;34843;48.744;8.958;2023-04-01T14:29:02;11.10;99.90
3202;DHT22;34843;48.744;8.958;2023-04-01T14:34:53;11.00;99.90
3202;DHT22;34843;48.744;8.958;2023-04-01T14:45:51;11.20;99.90
3202;DHT22;34843;48.744;8.958;2023-04-01T14:48:49;11.20;99.90
3202;DHT22;34843;48.744;8.958;2023-04-01T14:57:14;11.10;99.90
3202;DHT22;34843;48.744;8.958;2023-04-01T15:00:26;11.00;99.90
3202;DHT22;34843;48.744;8.958;2023-04-01T15:08:00;10.90;99.90
3202;DHT22;34843;48.744;8.958;2023-04-01T15:17:00;10.70;99.90
3202;DHT22;34843;48.744;8.958;2023-04-01T15:24:21;10.90;99.90
3202;DHT22;34843;48.744;8.958;2023-04-01T15:32:54;11.20;99.90
3202;DHT22;34843;48.744;8.958;2023-04-01T15:35:45;11.10;99.90
3202;DHT22;34843;48.744;8.958;2023-04-01T15:38:30;11.00;99.90
3202;DHT22;34843;48.744;8.958;2023-04-01T15:41:15;10.90;99.90
3202;DHT22;34843;48.744;8.958;2023-04-01T15:43:47;10.80;99.90
3202;DHT22;34843;48.744;8.958;2023-04-01T15:49:22;10.60;99.90
3202;DHT22;34843;48.744;8.958;2023-04-01T15:55:12;10.40;99.90
3202;DHT22;34843;48.744;8.958;2023-04-01T15:58:01;10.50;99.90
3202;DHT22;34843;48.744;8.958;2023-04-01T16:08:46;10.20;99.90
3202;DHT22;34843;48.744;8.958;2023-04-01T16:14:03;10.20;99.90
3202;DHT22;34843;48.744;8.958;2023-04-01T16:17:03;10.10;99.90
3202;DHT22;34843;48.744;8.958;2023-04-01T16:25:49;10.20;99.90
3202;DHT22;34843;48.744;8.958;2023-04-01T16:28:27;10.30;99.90
3202;DHT22;34843;48.744;8.958;2023-04-01T16:31:12;10.40;99.90
3202;DHT22;34843;48.744;8.958;2023-04-01T16:33:52;10.50;99.90
3202;DHT22;34843;48.744;8.958;2023-04-01T16:36:45;10.50;99.90
3202;DHT22;34843;48.744;8.958;2023-04-01T16:47:49;10.60;99.90
3202;DHT22;34843;48.744;8.958;2023-04-01T16:50:27;10.60;99.90
3202;DHT22;34843;48.744;8.958;2023-04-01T16:58:10;10.50;99.90
3202;DHT22;34843;48.744;8.958;2023-04-01T17:00:44;10.40;99.90
3202;DHT22;34843;48.744;8.958;2023-04-01T17:03:27;10.40;99.90
3202;DHT22;34843;48.744;8.958;2023-04-01T17:09:20;10.20;99.90
3202;DHT22;34843;48.744;8.958;2023-04-01T17:12:13;10.10;99.90
3202;DHT22;34843;48.744;8.958;2023-04-01T17:15:21;10.10;99.90
3202;DHT22;34843;48.744;8.958;2023-04-01T17:18:09;10.10;99.90
3202;DHT22;34843;48.744;8.958;2023-04-01T17:20:49;10.00;99.90
3202;DHT22;34843;48.744;8.958;2023-04-01T17:23:31;10.00;99.90
3202;DHT22;34843;48.744;8.958;2023-04-01T17:26:06;9.90;99.90
3202;DHT22;34843;48.744;8.958;2023-04-01T17:28:49;9.90;99.90
3202;DHT22;34843;48.744;8.958;2023-04-01T17:31:57;9.90;99.90
3202;DHT22;34843;48.744;8.958;2023-04-01T17:37:40;10.00;99.90
3202;DHT22;34843;48.744;8.958;2023-04-01T17:51:11;9.70;99.90
3202;DHT22;34843;48.744;8.958;2023-04-01T17:59:35;9.40;99.90
3202;DHT22;34843;48.744;8.958;2023-04-01T18:02:06;9.20;99.90
3202;DHT22;34843;48.744;8.958;2023-04-01T18:04:48;9.00;99.90
3202;DHT22;34843;48.744;8.958;2023-04-01T18:07:37;8.90;99.90
3202;DHT22;34843;48.744;8.958;2023-04-01T18:10:34;8.70;99.90
3202;DHT22;34843;48.744;8.958;2023-04-01T18:15:52;8.60;99.90
3202;DHT22;34843;48.744;8.958;2023-04-01T18:18:26;8.50;99.90
3202;DHT22;34843;48.744;8.958;2023-04-01T18:21:05;8.40;99.90
3202;DHT22;34843;48.744;8.958;2023-04-01T18:23:41;8.20;99.90
3202;DHT22;34843;48.744;8.958;2023-04-01T18:26:31;8.20;99.90
3202;DHT22;34843;48.744;8.958;2023-04-01T18:31:48;8.00;99.90
3202;DHT22;34843;48.744;8.958;2023-04-01T18:34:29;7.80;99.90
3202;DHT22;34843;48.744;8.958;2023-04-01T18:45:45;7.40;99.90
3202;DHT22;34843;48.744;8.958;2023-04-01T18:49:33;7.40;99.90
3202;DHT22;34843;48.744;8.958;2023-04-01T18:51:46;7.30;99.90
3202;DHT22;34843;48.744;8.958;2023-04-01T18:54:33;7.30;99.90
3202;DHT22;34843;48.744;8.958;2023-04-01T18:57:14;7.30;99.90
3202;DHT22;34843;48.744;8.958;2023-04-01T19:02:31;7.20;99.90
3202;DHT22;34843;48.744;8.958;2023-04-01T19:07:44;7.00;99.90
3202;DHT22;34843;48.744;8.958;2023-04-01T19:10:17;6.90;99.90
3202;DHT22;34843;48.744;8.958;2023-04-01T19:20:55;6.90;99.90
3202;DHT22;34843;48.744;8.958;2023-04-01T19:26:40;7.00;99.90
3202;DHT22;34843;48.744;8.958;2023-04-01T19:29:20;7.10;99.90
3202;DHT22;34843;48.744;8.958;2023-04-01T19:32:11;7.10;99.90
3202;DHT22;34843;48.744;8.958;2023-04-01T19:37:40;7.10;99.90
3202;DHT22;34843;48.744;8.958;2023-04-01T19:40:15;7.10;99.90
3202;DHT22;34843;48.744;8.958;2023-04-01T19:43:01;7.10;99.90
3202;DHT22;34843;48.744;8.958;2023-04-01T19:45:51;7.00;99.90
3202;DHT22;34843;48.744;8.958;2023-04-01T19:48:37;7.00;99.90
3202;DHT22;34843;48.744;8.958;2023-04-01T20:00:07;7.10;99.90
3202;DHT22;34843;48.744;8.958;2023-04-01T20:02:55;7.20;99.90
3202;DHT22;34843;48.744;8.958;2023-04-01T20:05:33;7.30;99.90
3202;DHT22;34843;48.744;8.958;2023-04-01T20:08:31;7.50;99.90
3202;DHT22;34843;48.744;8.958;2023-04-01T20:13:58;7.50;99.90
3202;DHT22;34843;48.744;8.958;2023-04-01T20:16:48;7.50;99.90
3202;DHT22;34843;48.744;8.958;2023-04-01T20:22:28;7.50;99.90
3202;DHT22;34843;48.744;8.958;2023-04-01T20:24:59;7.50;99.90
3202;DHT22;34843;48.744;8.958;2023-04-01T20:27:35;7.60;99.90
3202;DHT22;34843;48.744;8.958;2023-04-01T20:33:16;7.70;99.90
3202;DHT22;34843;48.744;8.958;2023-04-01T20:39:00;7.70;99.90
3202;DHT22;34843;48.744;8.958;2023-04-01T20:41:39;7.70;99.90
3202;DHT22;34843;48.744;8.958;2023-04-01T20:47:00;7.80;99.90
3202;DHT22;34843;48.744;8.958;2023-04-01T20:49:41;7.80;99.90
3202;DHT22;34843;48.744;8.958;2023-04-01T20:54:58;7.70;99.90
3202;DHT22;34843;48.744;8.958;2023-04-01T20:57:38;7.60;99.90
3202;DHT22;34843;48.744;8.958;2023-04-01T21:06:02;7.30;99.90
3202;DHT22;34843;48.744;8.958;2023-04-01T21:08:36;7.20;99.90
3202;DHT22;34843;48.744;8.958;2023-04-01T21:11:13;7.20;99.90
3202;DHT22;34843;48.744;8.958;2023-04-01T21:25:39;7.20;99.90
3202;DHT22;34843;48.744;8.958;2023-04-01T21:28:23;7.20;99.90
3202;DHT22;34843;48.744;8.958;2023-04-01T21:39:06;7.10;99.90
3202;DHT22;34843;48.744;8.958;2023-04-01T21:47:22;7.00;99.90
3202;DHT22;34843;48.744;8.958;2023-04-01T21:50:18;6.90;99.90
3202;DHT22;34843;48.744;8.958;2023-04-01T21:53:09;6.90;99.90
3202;DHT22;34843;48.744;8.958;2023-04-01T21:56:04;6.90;99.90
3202;DHT22;34843;48.744;8.958;2023-04-01T21:58:46;6.90;99.90
3202;DHT22;34843;48.744;8.958;2023-04-01T22:01:40;6.90;99.90
3202;DHT22;34843;48.744;8.958;2023-04-01T22:04:54;6.90;99.90
3202;DHT22;34843;48.744;8.958;2023-04-01T22:07:34;7.00;99.90
3202;DHT22;34843;48.744;8.958;2023-04-01T22:13:01;7.20;99.90
3202;DHT22;34843;48.744;8.958;2023-04-01T22:18:29;7.20;99.90
3202;DHT22;34843;48.744;8.958;2023-04-01T22:29:26;7.40;99.90
3202;DHT22;34843;48.744;8.958;2023-04-01T22:32:14;7.40;99.90
3202;DHT22;34843;48.744;8.958;2023-04-01T22:35:02;7.30;99.90
3202;DHT22;34843;48.744;8.958;2023-04-01T22:40:30;7.20;99.90
3202;DHT22;34843;48.744;8.958;2023-04-01T22:42:59;7.10;99.90
3202;DHT22;34843;48.744;8.958;2023-04-01T22:48:33;7.00;99.90
3202;DHT22;34843;48.744;8.958;2023-04-01T22:56:20;6.90;99.90
3202;DHT22;34843;48.744;8.958;2023-04-01T22:59:08;6.90;99.90
3202;DHT22;34843;48.744;8.958;2023-04-01T23:01:47;6.80;99.90
3202;DHT22;34843;48.744;8.958;2023-04-01T23:04:16;6.70;99.90
3202;DHT22;34843;48.744;8.958;2023-04-01T23:06:51;6.60;99.90
3202;DHT22;34843;48.744;8.958;2023-04-01T23:09:22;6.50;99.90
3202;DHT22;34843;48.744;8.958;2023-04-01T23:11:51;6.50;99.90
3202;DHT22;34843;48.744;8.958;2023-04-01T23:17:06;6.40;99.90
3202;DHT22;34843;48.744;8.958;2023-04-01T23:22:43;6.30;99.90
3202;DHT22;34843;48.744;8.958;2023-04-01T23:25:23;6.20;99.90
3202;DHT22;34843;48.744;8.958;2023-04-01T23:33:23;6.00;99.90
3202;DHT22;34843;48.744;8.958;2023-04-01T23:36:12;6.00;99.90
3202;DHT22;34843;48.744;8.958;2023-04-01T23:38:40;5.90;99.90
3202;DHT22;34843;48.744;8.958;2023-04-01T23:41:18;5.90;99.90
3202;DHT22;34843;48.744;8.958;2023-04-01T23:43:52;5.80;99.90
3202;DHT22;34843;48.744;8.958;2023-04-01T23:46:18;5.90;99.90
3202;DHT22;34843;48.744;8.958;2023-04-01T23:48:45;5.90;99.90
3202;DHT22;34843;48.744;8.958;2023-04-01T23:51:21;5.90;99.90
3202;DHT22;34843;48.744;8.958;2023-04-01T23:53:57;5.90;99.90
3202;DHT22;34843;48.744;8.958;2023-04-01T23:56:34;5.90;99.90
3202;DHT22;34843;48.744;8.958;2023-04-01T23:59:02;6.00;99.90
